createdAt,value
2023-01-29T00:02:09.268Z,102769.56
2023-01-29T00:04:41.836Z,102768.78
2023-01-29T00:07:14.451Z,102776.00
2023-01-29T00:09:47.026Z,102776.06
2023-01-29T00:12:19.605Z,102772.13
2023-01-29T00:14:52.245Z,102764.94
2023-01-29T00:17:24.891Z,102761.75
2023-01-29T00:19:57.552Z,102759.03
2023-01-29T00:22:31.001Z,102756.66
2023-01-29T00:25:03.769Z,102755.50
2023-01-29T00:27:36.481Z,102760.31
2023-01-29T00:30:12.896Z,102759.56
2023-01-29T00:32:45.986Z,102748.84
2023-01-29T00:35:18.805Z,102744.50
2023-01-29T00:37:51.473Z,102750.06
2023-01-29T00:40:25.843Z,102759.66
2023-01-29T00:43:16.768Z,102747.16
2023-01-29T00:45:49.325Z,102747.31
2023-01-29T00:48:21.837Z,102746.94
2023-01-29T00:50:54.387Z,102730.31
2023-01-29T00:53:27.179Z,102731.09
2023-01-29T00:55:59.651Z,102718.03
2023-01-29T00:58:34.324Z,102715.25
2023-01-29T01:01:06.996Z,102712.88
2023-01-29T01:03:42.378Z,102701.78
2023-01-29T01:06:15.147Z,102701.78
2023-01-29T01:09:06.481Z,102707.34
2023-01-29T01:11:38.991Z,102700.19
2023-01-29T01:14:11.535Z,102705.38
2023-01-29T01:16:46.433Z,102709.00
2023-01-29T01:19:19.076Z,102705.84
2023-01-29T01:21:51.590Z,102704.25
2023-01-29T01:24:24.137Z,102707.03
2023-01-29T01:26:57.017Z,102709.44
2023-01-29T01:29:29.728Z,102707.09
2023-01-29T01:32:02.374Z,102705.94
2023-01-29T01:34:35.703Z,102701.19
2023-01-29T01:37:08.231Z,102709.91
2023-01-29T01:39:40.798Z,102721.84
2023-01-29T01:42:13.610Z,102723.47
2023-01-29T01:45:07.940Z,102731.38
2023-01-29T01:47:54.362Z,102724.69
2023-01-29T01:51:09.445Z,102726.63
2023-01-29T01:53:53.312Z,102720.31
2023-01-29T01:56:40.774Z,102715.53
2023-01-29T01:59:18.739Z,102712.78
2023-01-29T02:01:54.445Z,102715.63
2023-01-29T02:04:46.017Z,102714.78
2023-01-29T02:07:36.999Z,102722.75
2023-01-29T02:10:16.972Z,102728.34
2023-01-29T02:12:51.395Z,102722.78
2023-01-29T02:15:24.101Z,102722.00
2023-01-29T02:17:56.711Z,102723.22
2023-01-29T02:20:32.027Z,102718.53
2023-01-29T02:23:46.959Z,102730.75
2023-01-29T02:27:19.420Z,102729.16
2023-01-29T02:30:26.498Z,102736.31
2023-01-29T02:33:36.923Z,102745.91
2023-01-29T02:36:50.517Z,102740.34
2023-01-29T02:40:04.994Z,102732.38
2023-01-29T02:42:56.849Z,102730.84
2023-01-29T02:45:43.730Z,102730.91
2023-01-29T02:48:22.931Z,102730.53
2023-01-29T02:51:07.894Z,102732.53
2023-01-29T02:53:59.417Z,102722.97
2023-01-29T02:57:00.845Z,102726.13
2023-01-29T02:59:42.320Z,102733.34
2023-01-29T03:02:26.171Z,102726.22
2023-01-29T03:05:04.681Z,102716.66
2023-01-29T03:07:46.671Z,102712.31
2023-01-29T03:10:31.127Z,102719.06
2023-01-29T03:13:18.619Z,102713.13
2023-01-29T03:16:03.891Z,102718.72
2023-01-29T03:19:01.757Z,102725.47
2023-01-29T03:21:53.846Z,102712.75
2023-01-29T03:25:05.180Z,102720.28
2023-01-29T03:28:08.443Z,102717.56
2023-01-29T03:31:07.260Z,102712.78
2023-01-29T03:33:53.798Z,102708.00
2023-01-29T03:36:45.721Z,102713.56
2023-01-29T03:39:18.414Z,102699.69
2023-01-29T03:42:34.145Z,102704.84
2023-01-29T03:45:28.505Z,102713.50
2023-01-29T03:48:14.880Z,102704.13
2023-01-29T03:51:15.616Z,102701.69
2023-01-29T03:54:03.021Z,102704.91
2023-01-29T03:56:47.677Z,102699.34
2023-01-29T03:59:46.937Z,102688.91
2023-01-29T04:02:28.062Z,102697.75
2023-01-29T04:05:13.487Z,102690.25
2023-01-29T04:07:48.590Z,102698.63
2023-01-29T04:10:27.502Z,102699.44
2023-01-29T04:13:06.918Z,102687.53
2023-01-29T04:15:48.961Z,102692.25
2023-01-29T04:18:21.642Z,102682.75
2023-01-29T04:20:54.930Z,102680.75
2023-01-29T04:23:28.182Z,102668.13
2023-01-29T04:26:24.506Z,102680.38
2023-01-29T04:29:25.085Z,102679.56
2023-01-29T04:32:15.904Z,102674.81
2023-01-29T04:35:06.346Z,102671.66
2023-01-29T04:37:55.297Z,102671.66
2023-01-29T04:40:42.289Z,102665.72
2023-01-29T04:43:26.092Z,102657.38
2023-01-29T04:46:19.768Z,102661.75
2023-01-29T04:49:34.360Z,102665.34
2023-01-29T04:52:32.548Z,102666.94
2023-01-29T04:55:25.046Z,102654.22
2023-01-29T04:58:07.476Z,102638.34
2023-01-29T05:00:44.684Z,102635.19
2023-01-29T05:03:17.551Z,102629.25
2023-01-29T05:05:51.605Z,102625.69
2023-01-29T05:08:28.304Z,102634.41
2023-01-29T05:11:00.972Z,102620.13
2023-01-29T05:13:39.632Z,102624.91
2023-01-29T05:16:25.760Z,102613.81
2023-01-29T05:18:58.944Z,102607.88
2023-01-29T05:21:32.705Z,102617.00
2023-01-29T05:24:18.077Z,102623.31
2023-01-29T05:27:12.821Z,102617.03
2023-01-29T05:29:47.584Z,102618.59
2023-01-29T05:32:20.272Z,102600.31
2023-01-29T05:34:52.924Z,102606.69
2023-01-29T05:37:25.515Z,102597.97
2023-01-29T05:39:58.172Z,102600.75
2023-01-29T05:42:30.737Z,102597.16
2023-01-29T05:45:04.017Z,102596.38
2023-01-29T05:47:36.706Z,102608.28
2023-01-29T05:50:10.265Z,102599.53
2023-01-29T05:52:43.433Z,102611.81
2023-01-29T05:55:16.127Z,102613.78
2023-01-29T05:57:48.675Z,102621.69
2023-01-29T06:00:21.557Z,102617.31
2023-01-29T06:02:54.266Z,102620.03
2023-01-29T06:05:26.911Z,102628.69
2023-01-29T06:07:59.644Z,102630.28
2023-01-29T06:10:32.536Z,102631.00
2023-01-29T06:13:05.106Z,102630.94
2023-01-29T06:15:41.015Z,102639.59
2023-01-29T06:18:13.485Z,102635.94
2023-01-29T06:20:46.029Z,102624.78
2023-01-29T06:23:18.543Z,102645.69
2023-01-29T06:25:51.062Z,102645.59
2023-01-29T06:28:23.766Z,102653.50
2023-01-29T06:31:21.054Z,102649.41
2023-01-29T06:33:54.718Z,102652.06
2023-01-29T06:36:27.361Z,102632.47
2023-01-29T06:39:00.103Z,102625.19
2023-01-29T06:41:32.834Z,102608.41
2023-01-29T06:44:05.773Z,102599.53
2023-01-29T06:46:38.325Z,102602.50
2023-01-29T06:49:10.993Z,102613.13
2023-01-29T06:51:43.515Z,102610.22
2023-01-29T06:54:16.061Z,102618.03
2023-01-29T06:56:48.749Z,102612.38
2023-01-29T06:59:21.296Z,102604.25
2023-01-29T07:01:53.851Z,102596.19
2023-01-29T07:04:26.383Z,102601.31
2023-01-29T07:07:02.122Z,102601.22
2023-01-29T07:09:34.639Z,102595.22
2023-01-29T07:12:08.246Z,102600.38
2023-01-29T07:14:40.751Z,102597.88
2023-01-29T07:17:13.274Z,102611.72
2023-01-29T07:19:45.849Z,102608.47
2023-01-29T07:22:18.406Z,102614.41
2023-01-29T07:24:51.137Z,102602.13
2023-01-29T07:27:23.932Z,102610.78
2023-01-29T07:29:56.637Z,102613.13
2023-01-29T07:32:29.358Z,102611.56
2023-01-29T07:35:01.869Z,102607.56
2023-01-29T07:37:34.454Z,102617.94
2023-01-29T07:40:11.190Z,102622.72
2023-01-29T07:42:44.124Z,102597.25
2023-01-29T07:45:16.782Z,102596.06
2023-01-29T07:47:54.453Z,102602.84
2023-01-29T07:50:27.857Z,102598.84
2023-01-29T07:53:00.997Z,102598.84
2023-01-29T07:55:33.857Z,102600.41
2023-01-29T07:58:06.680Z,102604.44
2023-01-29T08:00:39.744Z,102602.47
2023-01-29T08:03:16.401Z,102604.44
2023-01-29T08:05:48.968Z,102596.84
2023-01-29T08:08:21.649Z,102592.81
2023-01-29T08:10:54.193Z,102597.97
2023-01-29T08:13:26.769Z,102589.97
2023-01-29T08:16:04.028Z,102588.38
2023-01-29T08:18:38.587Z,102590.81
2023-01-29T08:21:13.087Z,102602.28
2023-01-29T08:23:46.405Z,102596.28
2023-01-29T08:26:19.050Z,102594.69
2023-01-29T08:28:51.639Z,102589.84
2023-01-29T08:31:24.549Z,102594.22
2023-01-29T08:33:57.343Z,102586.63
2023-01-29T08:36:29.953Z,102592.13
2023-01-29T08:39:02.660Z,102576.59
2023-01-29T08:41:35.313Z,102573.75
2023-01-29T08:44:08.049Z,102571.72
2023-01-29T08:46:40.966Z,102567.34
2023-01-29T08:49:13.630Z,102582.03
2023-01-29T08:51:46.290Z,102574.00
2023-01-29T08:54:19.057Z,102562.44
2023-01-29T08:56:51.623Z,102571.94
2023-01-29T08:59:24.198Z,102566.72
2023-01-29T09:01:56.881Z,102567.94
2023-01-29T09:04:29.538Z,102577.00
2023-01-29T09:07:02.025Z,102577.38
2023-01-29T09:09:34.689Z,102574.56
2023-01-29T09:12:07.593Z,102570.94
2023-01-29T09:14:40.135Z,102566.91
2023-01-29T09:17:12.757Z,102558.19
2023-01-29T09:19:45.425Z,102552.13
2023-01-29T09:22:18.139Z,102558.06
2023-01-29T09:24:50.684Z,102549.22
2023-01-29T09:27:23.842Z,102555.63
2023-01-29T09:29:56.417Z,102550.03
2023-01-29T09:32:52.677Z,102548.38
2023-01-29T09:35:24.109Z,102548.28
2023-01-29T09:37:56.958Z,102545.13
2023-01-29T09:40:55.599Z,102544.28
2023-01-29T09:43:46.015Z,102548.16
2023-01-29T09:46:42.705Z,102552.06
2023-01-29T09:49:29.534Z,102554.09
2023-01-29T09:52:10.895Z,102549.72
2023-01-29T09:55:05.517Z,102551.97
2023-01-29T09:57:56.059Z,102549.56
2023-01-29T10:00:50.756Z,102546.06
2023-01-29T10:03:28.915Z,102541.19
2023-01-29T10:06:21.886Z,102534.41
2023-01-29T10:09:41.770Z,102548.97
2023-01-29T10:13:05.865Z,102546.63
2023-01-29T10:16:08.544Z,102555.00
2023-01-29T10:19:07.207Z,102556.56
2023-01-29T10:22:16.464Z,102555.72
2023-01-29T10:25:04.113Z,102557.28
2023-01-29T10:27:44.599Z,102550.13
2023-01-29T10:30:34.785Z,102547.25
2023-01-29T10:33:18.424Z,102543.66
2023-01-29T10:36:00.374Z,102543.66
2023-01-29T10:38:50.679Z,102541.22
2023-01-29T10:42:18.797Z,102537.03
2023-01-29T10:45:25.705Z,102541.03
2023-01-29T10:48:33.741Z,102535.47
2023-01-29T10:51:45.438Z,102535.81
2023-01-29T10:55:04.406Z,102539.66
2023-01-29T10:58:17.364Z,102540.88
2023-01-29T11:00:51.501Z,102521.06
2023-01-29T11:03:28.814Z,102529.88
2023-01-29T11:06:27.883Z,102521.22
2023-01-29T11:09:39.825Z,102510.94
2023-01-29T11:12:22.831Z,102508.22
2023-01-29T11:15:18.326Z,102512.50
2023-01-29T11:18:13.666Z,102502.91
2023-01-29T11:20:46.606Z,102492.16
2023-01-29T11:23:31.029Z,102486.50
2023-01-29T11:26:05.860Z,102478.19
2023-01-29T11:28:49.618Z,102484.13
2023-01-29T11:31:29.217Z,102483.22
2023-01-29T11:34:13.879Z,102472.88
2023-01-29T11:36:47.060Z,102461.72
2023-01-29T11:39:25.284Z,102456.75
2023-01-29T11:42:03.746Z,102445.59
2023-01-29T11:44:43.223Z,102445.50
2023-01-29T11:47:38.974Z,102434.31
2023-01-29T11:50:24.493Z,102433.44
2023-01-29T11:53:00.276Z,102419.47
2023-01-29T11:55:49.818Z,102414.69
2023-01-29T11:58:35.843Z,102414.91
2023-01-29T12:01:10.965Z,102400.59
2023-01-29T12:03:53.887Z,102392.53
2023-01-29T12:06:42.350Z,102378.03
2023-01-29T12:09:22.834Z,102380.38
2023-01-29T12:11:55.449Z,102365.97
2023-01-29T12:14:35.957Z,102360.38
2023-01-29T12:17:23.994Z,102345.16
2023-01-29T12:20:09.069Z,102355.47
2023-01-29T12:23:03.877Z,102352.59
2023-01-29T12:26:11.073Z,102343.84
2023-01-29T12:29:23.961Z,102336.03
2023-01-29T12:32:38.117Z,102331.22
2023-01-29T12:35:30.720Z,102324.06
2023-01-29T12:38:20.958Z,102320.84
2023-01-29T12:41:07.927Z,102319.34
2023-01-29T12:43:49.383Z,102315.34
2023-01-29T12:46:29.424Z,102309.41
2023-01-29T12:49:13.001Z,102308.97
2023-01-29T12:52:11.642Z,102302.47
2023-01-29T12:54:56.128Z,102300.59
2023-01-29T12:57:50.681Z,102305.38
2023-01-29T13:00:29.290Z,102300.13
2023-01-29T13:03:19.874Z,102293.75
2023-01-29T13:06:03.382Z,102295.50
2023-01-29T13:08:51.497Z,102292.28
2023-01-29T13:11:33.899Z,102291.50
2023-01-29T13:14:40.553Z,102277.09
2023-01-29T13:17:30.640Z,102269.16
2023-01-29T13:20:34.025Z,102278.56
2023-01-29T13:23:21.160Z,102270.69
2023-01-29T13:25:55.025Z,102266.78
2023-01-29T13:28:28.203Z,102262.88
2023-01-29T13:31:48.447Z,102273.16
2023-01-29T13:34:33.163Z,102261.63
2023-01-29T13:37:39.763Z,102259.16
2023-01-29T13:40:27.934Z,102251.69
2023-01-29T13:43:02.869Z,102250.09
2023-01-29T13:45:44.545Z,102238.28
2023-01-29T13:48:31.907Z,102239.25
2023-01-29T13:51:16.994Z,102233.03
2023-01-29T13:54:00.767Z,102226.63
2023-01-29T13:56:33.323Z,102226.97
2023-01-29T13:59:07.090Z,102227.09
2023-01-29T14:01:48.746Z,102237.38
2023-01-29T14:04:31.373Z,102237.38
2023-01-29T14:07:45.439Z,102234.47
2023-01-29T14:10:23.054Z,102233.03
2023-01-29T14:13:18.534Z,102225.28
2023-01-29T14:15:56.978Z,102231.00
2023-01-29T14:18:33.665Z,102223.06
2023-01-29T14:21:21.463Z,102209.63
2023-01-29T14:24:18.878Z,102215.44
2023-01-29T14:26:55.913Z,102212.66
2023-01-29T14:29:38.080Z,102213.44
2023-01-29T14:32:20.423Z,102202.28
2023-01-29T14:35:20.505Z,102197.31
2023-01-29T14:37:59.367Z,102202.28
2023-01-29T14:40:35.724Z,102186.38
2023-01-29T14:43:21.736Z,102194.75
2023-01-29T14:45:54.435Z,102198.56
2023-01-29T14:48:46.595Z,102203.72
2023-01-29T14:51:20.802Z,102195.78
2023-01-29T14:54:02.275Z,102196.22
2023-01-29T14:56:59.388Z,102196.44
2023-01-29T14:59:46.771Z,102200.47
2023-01-29T15:02:33.807Z,102201.25
2023-01-29T15:05:21.630Z,102182.47
2023-01-29T15:08:01.453Z,102172.50
2023-01-29T15:11:11.203Z,102172.84
2023-01-29T15:14:06.375Z,102166.38
2023-01-29T15:16:56.057Z,102171.63
2023-01-29T15:19:44.964Z,102170.03
2023-01-29T15:22:23.218Z,102159.97
2023-01-29T15:25:13.781Z,102166.72
2023-01-29T15:27:46.750Z,102152.38
2023-01-29T15:30:32.850Z,102154.38
2023-01-29T15:33:10.743Z,102162.00
2023-01-29T15:35:43.523Z,102164.34
2023-01-29T15:38:20.769Z,102162.66
2023-01-29T15:41:02.185Z,102149.94
2023-01-29T15:43:46.198Z,102156.19
2023-01-29T15:46:37.596Z,102153.50
2023-01-29T15:49:25.918Z,102152.16
2023-01-29T15:52:04.308Z,102144.19
2023-01-29T15:54:36.923Z,102143.00
2023-01-29T15:57:24.897Z,102135.38
2023-01-29T15:59:58.910Z,102131.03
2023-01-29T16:02:34.684Z,102125.44
2023-01-29T16:05:19.681Z,102123.41
2023-01-29T16:07:55.615Z,102121.41
2023-01-29T16:10:32.294Z,102117.03
2023-01-29T16:13:05.374Z,102113.00
2023-01-29T16:15:54.933Z,102120.16
2023-01-29T16:18:39.514Z,102108.97
2023-01-29T16:21:28.744Z,102113.34
2023-01-29T16:24:09.383Z,102116.13
2023-01-29T16:26:49.226Z,102092.53
2023-01-29T16:29:30.019Z,102105.72
2023-01-29T16:32:03.679Z,102098.91
2023-01-29T16:34:41.447Z,102096.13
2023-01-29T16:37:28.538Z,102089.28
2023-01-29T16:40:13.280Z,102086.59
2023-01-29T16:42:45.786Z,102062.56
2023-01-29T16:45:30.664Z,102075.63
2023-01-29T16:48:32.526Z,102071.16
2023-01-29T16:51:13.965Z,102079.34
2023-01-29T16:53:56.523Z,102074.84
2023-01-29T16:56:33.322Z,102077.31
2023-01-29T16:59:07.240Z,102076.06
2023-01-29T17:01:39.854Z,102073.41
2023-01-29T17:04:19.243Z,102071.28
2023-01-29T17:07:02.319Z,102074.84
2023-01-29T17:09:38.071Z,102075.31
2023-01-29T17:12:21.923Z,102062.56
2023-01-29T17:15:29.887Z,102069.72
2023-01-29T17:18:03.639Z,102060.22
2023-01-29T17:20:36.215Z,102069.25
2023-01-29T17:23:08.676Z,102051.50
2023-01-29T17:25:41.524Z,102060.09
2023-01-29T17:28:17.459Z,102059.28
2023-01-29T17:31:04.963Z,102069.72
2023-01-29T17:33:43.501Z,102060.53
2023-01-29T17:36:17.798Z,102060.88
2023-01-29T17:38:50.307Z,102050.56
2023-01-29T17:41:30.275Z,102058.06
2023-01-29T17:44:02.818Z,102050.91
2023-01-29T17:46:35.369Z,102049.69
2023-01-29T17:49:28.854Z,102044.75
2023-01-29T17:52:01.582Z,102042.06
2023-01-29T17:54:34.093Z,102045.66
2023-01-29T17:57:06.564Z,102040.06
2023-01-29T17:59:39.040Z,102032.25
2023-01-29T18:02:29.676Z,102034.72
2023-01-29T18:05:02.472Z,102035.72
2023-01-29T18:07:37.156Z,102032.91
2023-01-29T18:10:21.601Z,102037.59
2023-01-29T18:12:54.410Z,102025.28
2023-01-29T18:15:26.933Z,102017.69
2023-01-29T18:18:00.336Z,102022.06
2023-01-29T18:20:36.663Z,102013.34
2023-01-29T18:23:09.342Z,102020.94
2023-01-29T18:25:43.200Z,102020.16
2023-01-29T18:28:17.624Z,102020.16
2023-01-29T18:30:50.504Z,102017.34
2023-01-29T18:33:24.202Z,102020.16
2023-01-29T18:35:57.119Z,102020.16
2023-01-29T18:38:29.847Z,102009.53
2023-01-29T18:41:10.581Z,102015.47
2023-01-29T18:43:44.192Z,102009.88
2023-01-29T18:46:16.934Z,102002.72
2023-01-29T18:48:49.877Z,102000.25
2023-01-29T18:51:22.529Z,101989.97
2023-01-29T18:53:55.111Z,101986.72
2023-01-29T18:56:28.008Z,101969.47
2023-01-29T18:59:00.579Z,101963.56
2023-01-29T19:01:33.358Z,101963.13
2023-01-29T19:04:06.070Z,101944.31
2023-01-29T19:06:38.947Z,101944.31
2023-01-29T19:09:11.570Z,101946.78
2023-01-29T19:11:44.240Z,101943.53
2023-01-29T19:14:17.167Z,101942.78
2023-01-29T19:16:50.504Z,101956.41
2023-01-29T19:19:23.196Z,101955.50
2023-01-29T19:21:55.719Z,101939.63
2023-01-29T19:24:28.303Z,101933.72
2023-01-29T19:27:01.919Z,101934.06
2023-01-29T19:29:34.513Z,101919.16
2023-01-29T19:32:08.679Z,101914.03
2023-01-29T19:34:41.066Z,101912.72
2023-01-29T19:37:14.404Z,101890.22
2023-01-29T19:39:46.946Z,101893.81
2023-01-29T19:42:20.780Z,101891.78
2023-01-29T19:44:53.467Z,101900.81
2023-01-29T19:47:26.097Z,101889.31
2023-01-29T19:49:58.638Z,101878.91
2023-01-29T19:52:49.816Z,101866.94
2023-01-29T19:55:23.686Z,101854.22
2023-01-29T19:57:58.155Z,101859.81
2023-01-29T20:00:30.842Z,101851.09
2023-01-29T20:03:03.585Z,101843.81
2023-01-29T20:05:37.466Z,101836.63
2023-01-29T20:08:09.999Z,101830.28
2023-01-29T20:10:46.836Z,101831.19
2023-01-29T20:13:19.544Z,101833.06
2023-01-29T20:15:53.130Z,101838.66
2023-01-29T20:18:25.655Z,101835.09
2023-01-29T20:20:59.132Z,101832.75
2023-01-29T20:23:38.063Z,101847.03
2023-01-29T20:26:17.330Z,101859.47
2023-01-29T20:28:50.115Z,101841.56
2023-01-29T20:31:22.842Z,101856.69
2023-01-29T20:33:55.462Z,101856.69
2023-01-29T20:36:28.370Z,101855.09
2023-01-29T20:39:00.864Z,101841.13
2023-01-29T20:41:33.762Z,101843.94
2023-01-29T20:44:06.359Z,101847.31
2023-01-29T20:46:39.300Z,101864.75
2023-01-29T20:49:12.314Z,101855.09
2023-01-29T20:51:46.207Z,101849.63
2023-01-29T20:54:18.908Z,101838.34
2023-01-29T20:56:51.598Z,101824.03
2023-01-29T20:59:24.336Z,101815.31
2023-01-29T21:01:57.002Z,101823.25
2023-01-29T21:04:31.346Z,101825.59
2023-01-29T21:07:03.891Z,101830.88
2023-01-29T21:09:36.634Z,101829.63
2023-01-29T21:12:09.675Z,101834.44
2023-01-29T21:14:42.217Z,101828.06
2023-01-29T21:17:14.695Z,101815.31
2023-01-29T21:19:47.871Z,101812.19
2023-01-29T21:22:20.858Z,101814.66
2023-01-29T21:24:53.530Z,101832.09
2023-01-29T21:27:26.221Z,101830.53
2023-01-29T21:29:58.806Z,101828.53
2023-01-29T21:32:31.449Z,101838.59
2023-01-29T21:35:04.289Z,101846.06
2023-01-29T21:37:38.043Z,101840.16
2023-01-29T21:40:11.461Z,101819.81
2023-01-29T21:43:02.555Z,101816.25
2023-01-29T21:45:35.828Z,101820.59
2023-01-29T21:48:10.862Z,101809.41
2023-01-29T21:50:43.930Z,101820.59
2023-01-29T21:53:17.287Z,101807.84
2023-01-29T21:55:50.026Z,101805.94
2023-01-29T21:58:22.700Z,101804.41
2023-01-29T22:00:55.438Z,101815.91
2023-01-29T22:03:28.067Z,101829.25
2023-01-29T22:06:00.623Z,101821.19
2023-01-29T22:08:33.326Z,101826.13
2023-01-29T22:11:09.537Z,101836.09
2023-01-29T22:13:42.747Z,101801.28
2023-01-29T22:16:15.317Z,101788.56
2023-01-29T22:18:49.971Z,101784.97
2023-01-29T22:21:22.595Z,101771.78
2023-01-29T22:23:55.243Z,101769.44
2023-01-29T22:26:29.692Z,101772.69
2023-01-29T22:29:03.447Z,101761.50
2023-01-29T22:31:35.967Z,101735.13
2023-01-29T22:34:13.957Z,101697.22
2023-01-29T22:36:46.439Z,101699.38
2023-01-29T22:39:19.029Z,101663.34
2023-01-29T22:41:51.607Z,101675.31
2023-01-29T22:44:24.234Z,101667.06
2023-01-29T22:46:56.875Z,101680.72
2023-01-29T22:49:30.701Z,101714.59
2023-01-29T22:52:12.106Z,101714.59
2023-01-29T22:54:44.879Z,101708.34
2023-01-29T22:57:17.397Z,101702.44
2023-01-29T22:59:49.955Z,101698.41
2023-01-29T23:02:22.646Z,101691.88
2023-01-29T23:04:55.400Z,101690.28
2023-01-29T23:07:28.053Z,101705.84
2023-01-29T23:10:00.742Z,101696.97
2023-01-29T23:12:33.408Z,101693.53
2023-01-29T23:15:07.378Z,101690.44
2023-01-29T23:17:40.064Z,101681.59
2023-01-29T23:20:13.458Z,101643.41
2023-01-29T23:22:47.066Z,101633.13
2023-01-29T23:25:19.583Z,101631.56
2023-01-29T23:27:52.071Z,101639.63
2023-01-29T23:30:24.583Z,101639.00
2023-01-29T23:32:57.332Z,101668.50
2023-01-29T23:35:29.970Z,101655.91
2023-01-29T23:38:02.642Z,101658.22
2023-01-29T23:40:35.149Z,101640.81
2023-01-29T23:43:07.721Z,101638.50
2023-01-29T23:45:41.475Z,101624.66
2023-01-29T23:48:14.002Z,101629.00
2023-01-29T23:50:47.846Z,101631.50
2023-01-29T23:53:20.575Z,101623.56
2023-01-29T23:56:02.442Z,101618.88
2023-01-29T23:58:35.097Z,101618.09
